createdAt,value
2022-11-02T00:00:20.016Z,101383.75
2022-11-02T00:02:46.578Z,101379.91
2022-11-02T00:05:14.800Z,101381.09
2022-11-02T00:07:41.957Z,101386.09
2022-11-02T00:10:10.299Z,101391.53
2022-11-02T00:12:36.949Z,101385.47
2022-11-02T00:15:04.308Z,101375.56
2022-11-02T00:17:30.781Z,101379.72
2022-11-02T00:19:57.308Z,101383.13
2022-11-02T00:22:23.846Z,101380.03
2022-11-02T00:24:50.286Z,101369.69
2022-11-02T00:27:16.730Z,101370.75
2022-11-02T00:29:43.133Z,101376.06
2022-11-02T00:32:09.517Z,101373.72
2022-11-02T00:34:35.910Z,101369.47
2022-11-02T00:37:02.350Z,101374.38
2022-11-02T00:39:28.741Z,101370.09
2022-11-02T00:41:55.112Z,101349.53
2022-11-02T00:44:21.654Z,101364.66
2022-11-02T00:46:48.302Z,101372.97
2022-11-02T00:49:14.879Z,101376.81
2022-11-02T00:51:43.228Z,101370.63
2022-11-02T00:54:09.784Z,101377.25
2022-11-02T00:56:36.309Z,101376.50
2022-11-02T00:59:04.038Z,101376.19
2022-11-02T01:01:31.667Z,101373.19
2022-11-02T01:03:59.277Z,101367.00
2022-11-02T01:06:26.234Z,101363.91
2022-11-02T01:08:53.786Z,101386.00
2022-11-02T01:11:23.836Z,101420.97
2022-11-02T01:13:52.108Z,101416.06
2022-11-02T01:16:18.761Z,101426.53
2022-11-02T01:18:45.231Z,101413.19
2022-11-02T01:21:12.370Z,101406.03
2022-11-02T01:23:39.317Z,101418.16
2022-11-02T01:26:08.299Z,101413.88
2022-11-02T01:28:35.411Z,101423.22
2022-11-02T01:31:02.411Z,101412.03
2022-11-02T01:33:28.850Z,101414.16
2022-11-02T01:35:55.475Z,101417.31
2022-11-02T01:38:23.221Z,101411.75
2022-11-02T01:40:49.831Z,101419.41
2022-11-02T01:43:31.106Z,101422.97
2022-11-02T01:46:16.113Z,101401.78
2022-11-02T01:48:47.756Z,101399.31
2022-11-02T01:51:21.501Z,101398.00
2022-11-02T01:53:51.355Z,101390.22
2022-11-02T01:58:58.951Z,101379.84
2022-11-02T02:01:26.381Z,101377.00
2022-11-02T02:03:54.154Z,101388.91
2022-11-02T02:06:20.672Z,101387.47
2022-11-02T02:08:49.941Z,101383.44
2022-11-02T02:11:32.969Z,101381.28
2022-11-02T02:14:06.977Z,101384.44
2022-11-02T02:16:52.625Z,101378.88
2022-11-02T02:19:37.805Z,101384.59
2022-11-02T02:22:40.933Z,101376.72
2022-11-02T02:25:35.248Z,101372.97
2022-11-02T02:28:10.645Z,101370.38
2022-11-02T02:30:43.940Z,101375.38
2022-11-02T02:33:25.117Z,101376.88
2022-11-02T02:36:04.174Z,101388.25
2022-11-02T02:38:43.228Z,101391.66
2022-11-02T02:41:23.828Z,101395.78
2022-11-02T02:43:54.586Z,101388.16
2022-11-02T02:46:27.647Z,101393.81
2022-11-02T02:48:57.294Z,101397.56
2022-11-02T02:51:30.020Z,101383.84
2022-11-02T02:54:11.050Z,101387.59
2022-11-02T02:56:49.148Z,101379.19
2022-11-02T02:59:26.755Z,101372.31
2022-11-02T03:01:56.094Z,101380.94
2022-11-02T03:04:23.547Z,101383.53
2022-11-02T03:06:54.034Z,101395.66
2022-11-02T03:09:28.278Z,101390.34
2022-11-02T03:12:17.988Z,101379.28
2022-11-02T03:15:11.145Z,101378.34
2022-11-02T03:17:45.216Z,101373.78
2022-11-02T03:20:43.258Z,101372.53
2022-11-02T03:23:16.798Z,101370.28
2022-11-02T03:26:03.852Z,101370.63
2022-11-02T03:28:47.987Z,101367.22
2022-11-02T03:31:51.400Z,101376.69
2022-11-02T03:34:27.376Z,101384.25
2022-11-02T03:37:18.328Z,101389.56
2022-11-02T03:39:55.301Z,101380.09
2022-11-02T03:42:26.007Z,101390.31
2022-11-02T03:45:13.100Z,101391.38
2022-11-02T03:47:42.006Z,101398.13
2022-11-02T03:50:13.664Z,101386.66
2022-11-02T03:52:44.882Z,101398.03
2022-11-02T03:55:28.953Z,101399.94
2022-11-02T03:57:55.927Z,101400.69
2022-11-02T04:00:29.987Z,101404.44
2022-11-02T04:03:06.894Z,101407.75
2022-11-02T04:05:36.695Z,101406.16
2022-11-02T04:08:22.255Z,101412.78
2022-11-02T04:11:17.382Z,101411.09
2022-11-02T04:14:04.165Z,101424.75
2022-11-02T04:16:35.397Z,101422.06
2022-11-02T04:19:24.649Z,101431.13
2022-11-02T04:22:11.150Z,101442.75
2022-11-02T04:24:58.073Z,101442.34
2022-11-02T04:27:25.180Z,101451.44
2022-11-02T04:29:52.476Z,101443.69
2022-11-02T04:32:39.424Z,101457.66
2022-11-02T04:35:10.190Z,101469.72
2022-11-02T04:38:01.383Z,101478.03
2022-11-02T04:40:31.116Z,101495.16
2022-11-02T04:42:57.972Z,101498.25
2022-11-02T04:45:24.360Z,101506.97
2022-11-02T04:47:52.349Z,101506.97
2022-11-02T04:50:19.197Z,101511.13
2022-11-02T04:52:45.631Z,101510.72
2022-11-02T04:55:12.292Z,101497.72
2022-11-02T04:57:44.829Z,101517.41
2022-11-02T05:00:12.856Z,101521.56
2022-11-02T05:02:39.865Z,101521.91
2022-11-02T05:05:07.612Z,101535.28
2022-11-02T05:07:34.152Z,101543.69
2022-11-02T05:10:00.971Z,101555.63
2022-11-02T05:12:29.356Z,101562.19
2022-11-02T05:14:56.166Z,101559.28
2022-11-02T05:17:22.555Z,101557.13
2022-11-02T05:19:49.070Z,101568.56
2022-11-02T05:22:15.530Z,101575.47
2022-11-02T05:24:42.027Z,101581.19
2022-11-02T05:27:10.255Z,101576.72
2022-11-02T05:29:38.052Z,101580.53
2022-11-02T05:32:04.718Z,101590.09
2022-11-02T05:34:31.712Z,101592.06
2022-11-02T05:36:59.226Z,101582.28
2022-11-02T05:39:25.654Z,101587.69
2022-11-02T05:41:52.309Z,101595.34
2022-11-02T05:44:18.938Z,101593.09
2022-11-02T05:46:45.408Z,101604.88
2022-11-02T05:49:11.827Z,101612.13
2022-11-02T05:51:38.229Z,101602.97
2022-11-02T05:54:04.802Z,101610.53
2022-11-02T05:56:31.184Z,101609.78
2022-11-02T05:58:57.652Z,101619.28
2022-11-02T06:01:24.183Z,101619.59
2022-11-02T06:03:53.461Z,101624.94
2022-11-02T06:06:20.394Z,101630.25
2022-11-02T06:08:46.800Z,101641.22
2022-11-02T06:11:14.130Z,101637.47
2022-11-02T06:13:41.872Z,101639.47
2022-11-02T06:16:10.334Z,101642.53
2022-11-02T06:18:38.375Z,101650.59
2022-11-02T06:21:05.276Z,101661.22
2022-11-02T06:23:31.694Z,101670.69
2022-11-02T06:26:00.007Z,101678.75
2022-11-02T06:28:27.292Z,101684.47
2022-11-02T06:30:54.504Z,101677.66
2022-11-02T06:33:21.482Z,101687.53
2022-11-02T06:35:50.281Z,101686.78
2022-11-02T06:38:17.542Z,101693.19
2022-11-02T06:41:03.270Z,101703.50
2022-11-02T06:43:30.444Z,101705.81
2022-11-02T06:45:58.254Z,101719.13
2022-11-02T06:48:28.687Z,101720.28
2022-11-02T06:50:58.064Z,101724.09
2022-11-02T06:53:24.519Z,101730.91
2022-11-02T06:55:55.740Z,101742.38
2022-11-02T06:58:24.044Z,101743.53
2022-11-02T07:00:51.075Z,101762.53
2022-11-02T07:03:17.618Z,101764.03
2022-11-02T07:05:50.504Z,101770.13
2022-11-02T07:08:16.909Z,101774.28
2022-11-02T07:10:43.341Z,101789.06
2022-11-02T07:13:09.747Z,101786.41
2022-11-02T07:15:36.177Z,101799.69
2022-11-02T07:18:03.086Z,101800.84
2022-11-02T07:20:30.362Z,101814.91
2022-11-02T07:22:58.971Z,101824.72
2022-11-02T07:25:27.179Z,101825.44
2022-11-02T07:27:54.224Z,101828.78
2022-11-02T07:30:20.978Z,101832.47
2022-11-02T07:32:47.417Z,101837.22
2022-11-02T07:35:15.386Z,101838.38
2022-11-02T07:37:42.132Z,101844.44
2022-11-02T07:40:10.580Z,101849.78
2022-11-02T07:42:43.692Z,101850.53
2022-11-02T07:45:10.620Z,101864.91
2022-11-02T07:47:45.044Z,101862.53
2022-11-02T07:50:12.899Z,101867.88
2022-11-02T07:52:56.490Z,101879.94
2022-11-02T07:55:28.982Z,101883.69
2022-11-02T07:57:57.588Z,101883.66
2022-11-02T08:00:26.202Z,101884.34
2022-11-02T08:03:00.936Z,101889.63
2022-11-02T08:05:28.993Z,101891.88
2022-11-02T08:07:59.329Z,101894.81
2022-11-02T08:10:26.301Z,101904.63
2022-11-02T08:12:52.804Z,101903.78
2022-11-02T08:15:19.171Z,101907.13
2022-11-02T08:17:45.638Z,101908.97
2022-11-02T08:20:12.634Z,101899.78
2022-11-02T08:22:39.899Z,101910.34
2022-11-02T08:25:07.566Z,101911.09
2022-11-02T08:27:34.533Z,101916.72
2022-11-02T08:30:00.935Z,101920.81
2022-11-02T08:32:27.305Z,101927.56
2022-11-02T08:34:53.697Z,101938.16
2022-11-02T08:37:20.073Z,101933.28
2022-11-02T08:39:46.469Z,101939.72
2022-11-02T08:42:13.003Z,101931.31
2022-11-02T08:44:42.497Z,101936.91
2022-11-02T08:47:09.739Z,101940.56
2022-11-02T08:49:36.342Z,101940.44
2022-11-02T08:52:02.772Z,101939.94
2022-11-02T08:54:29.194Z,101950.47
2022-11-02T08:56:55.589Z,101948.81
2022-11-02T08:59:21.981Z,101943.41
2022-11-02T09:01:48.514Z,101948.66
2022-11-02T09:04:15.036Z,101943.22
2022-11-02T09:06:41.495Z,101956.06
2022-11-02T09:09:07.906Z,101954.09
2022-11-02T09:11:34.408Z,101949.84
2022-11-02T09:14:00.995Z,101962.69
2022-11-02T09:16:27.467Z,101970.19
2022-11-02T09:18:53.862Z,101968.59
2022-11-02T09:21:20.249Z,101964.78
2022-11-02T09:23:48.444Z,101960.13
2022-11-02T09:26:15.534Z,101971.88
2022-11-02T09:28:42.051Z,101974.03
2022-11-02T09:31:10.772Z,101980.00
2022-11-02T09:33:38.682Z,101999.34
2022-11-02T09:36:06.551Z,101994.34
2022-11-02T09:38:33.150Z,101998.78
2022-11-02T09:40:59.466Z,101999.06
2022-11-02T09:43:34.653Z,102005.41
2022-11-02T09:46:16.612Z,102011.41
2022-11-02T09:48:45.308Z,102018.16
2022-11-02T09:51:22.039Z,102016.25
2022-11-02T09:53:52.509Z,102021.06
2022-11-02T09:56:22.335Z,102018.72
2022-11-02T09:58:56.759Z,102022.16
2022-11-02T10:01:48.053Z,102031.25
2022-11-02T10:04:42.339Z,102025.72
2022-11-02T10:07:17.040Z,102024.47
2022-11-02T10:09:58.387Z,102022.16
2022-11-02T10:12:36.501Z,102021.97
2022-11-02T10:15:15.516Z,102022.63
2022-11-02T10:17:43.161Z,102023.72
2022-11-02T10:20:44.487Z,102038.38
2022-11-02T10:23:19.975Z,102048.88
2022-11-02T10:25:49.420Z,102051.53
2022-11-02T10:28:21.047Z,102043.78
2022-11-02T10:30:47.585Z,102045.84
2022-11-02T10:33:17.741Z,102043.41
2022-11-02T10:36:18.211Z,102049.66
2022-11-02T10:38:48.533Z,102037.03
2022-11-02T10:41:30.098Z,102048.25
2022-11-02T10:43:59.465Z,102048.59
2022-11-02T10:46:44.813Z,102048.91
2022-11-02T10:49:30.432Z,102050.00
2022-11-02T10:51:56.929Z,102053.41
2022-11-02T10:54:30.922Z,102063.25
2022-11-02T10:57:12.086Z,102063.81
2022-11-02T10:59:38.591Z,102069.84
2022-11-02T11:02:11.738Z,102063.63
2022-11-02T11:04:38.298Z,102066.63
2022-11-02T11:07:13.246Z,102068.34
2022-11-02T11:09:48.331Z,102074.91
2022-11-02T11:12:22.486Z,102078.44
2022-11-02T11:20:39.361Z,102081.16
2022-11-02T11:23:09.541Z,102076.25
2022-11-02T11:25:35.982Z,102073.25
2022-11-02T11:28:02.851Z,102081.03
2022-11-02T11:33:22.840Z,102075.91
2022-11-02T11:35:50.876Z,102074.91
2022-11-02T11:38:21.061Z,102076.09
2022-11-02T11:40:53.934Z,102071.25
2022-11-02T11:43:23.503Z,102070.50
2022-11-02T11:46:05.190Z,102072.34
2022-11-02T11:48:40.255Z,102069.56
2022-11-02T11:51:41.454Z,102070.09
2022-11-02T11:54:24.580Z,102060.16
2022-11-02T11:56:53.779Z,102059.41
2022-11-02T11:59:31.479Z,102057.38
2022-11-02T12:02:00.406Z,102055.66
2022-11-02T12:04:33.893Z,102058.16
2022-11-02T12:07:18.682Z,102065.22
2022-11-02T12:10:02.705Z,102068.53
2022-11-02T12:12:54.841Z,102064.88
2022-11-02T12:15:39.498Z,102068.75
2022-11-02T12:18:33.978Z,102073.97
2022-11-02T12:21:39.688Z,102065.63
2022-11-02T12:24:14.950Z,102067.78
2022-11-02T12:26:55.567Z,102056.63
2022-11-02T12:29:50.078Z,102052.34
2022-11-02T12:32:24.535Z,102060.81
2022-11-02T12:37:56.939Z,102045.84
2022-11-02T12:40:42.142Z,102035.03
2022-11-02T12:43:32.819Z,102039.09
2022-11-02T12:46:29.383Z,102035.78
2022-11-02T12:49:06.708Z,102034.91
2022-11-02T12:51:40.650Z,102029.13
2022-11-02T12:54:21.195Z,102035.66
2022-11-02T12:56:51.598Z,102040.06
2022-11-02T12:59:34.397Z,102027.97
2022-11-02T13:02:17.998Z,102039.84
2022-11-02T13:05:00.443Z,102048.41
2022-11-02T13:07:34.618Z,102047.78
2022-11-02T13:10:07.018Z,102040.94
2022-11-02T13:12:37.467Z,102034.06
2022-11-02T13:15:09.418Z,102031.09
2022-11-02T13:18:05.684Z,102018.13
2022-11-02T13:21:07.836Z,102032.25
2022-11-02T13:23:34.269Z,102018.13
2022-11-02T13:26:04.705Z,102021.25
2022-11-02T13:28:41.618Z,102010.22
2022-11-02T13:31:15.170Z,102009.91
2022-11-02T13:33:47.299Z,102008.41
2022-11-02T13:36:14.793Z,102002.72
2022-11-02T13:39:05.495Z,101985.59
2022-11-02T13:41:48.247Z,101993.63
2022-11-02T13:44:37.836Z,101985.16
2022-11-02T13:47:15.268Z,101983.34
2022-11-02T13:49:45.362Z,101994.91
2022-11-02T13:52:17.642Z,101993.41
2022-11-02T13:54:50.959Z,101995.75
2022-11-02T13:57:43.852Z,101993.94
2022-11-02T14:00:34.787Z,101997.03
2022-11-02T14:03:06.941Z,101988.38
2022-11-02T14:05:45.518Z,101991.91
2022-11-02T14:08:20.849Z,101994.03
2022-11-02T14:11:04.029Z,101994.22
2022-11-02T14:13:55.656Z,101994.31
2022-11-02T14:16:50.238Z,101991.13
2022-11-02T14:19:28.795Z,101991.34
2022-11-02T14:22:01.163Z,101989.66
2022-11-02T14:24:33.899Z,101992.66
2022-11-02T14:27:12.171Z,101981.94
2022-11-02T14:29:51.859Z,101981.09
2022-11-02T14:32:19.702Z,101975.00
2022-11-02T14:34:54.911Z,101970.94
2022-11-02T14:37:36.484Z,101972.75
2022-11-02T14:40:35.558Z,101961.94
2022-11-02T14:43:13.927Z,101963.78
2022-11-02T14:45:52.155Z,101959.94
2022-11-02T14:48:18.719Z,101959.28
2022-11-02T14:51:00.614Z,101946.44
2022-11-02T14:53:29.271Z,101952.19
2022-11-02T14:55:56.672Z,101949.63
2022-11-02T14:58:31.653Z,101950.81
2022-11-02T15:01:02.376Z,101942.03
2022-11-02T15:03:39.219Z,101945.47
2022-11-02T15:06:11.712Z,101937.88
2022-11-02T15:08:48.634Z,101947.50
2022-11-02T15:11:46.169Z,101942.25
2022-11-02T15:14:38.775Z,101944.69
2022-11-02T15:17:17.110Z,101943.72
2022-11-02T15:19:51.858Z,101937.44
2022-11-02T15:22:41.550Z,101937.63
2022-11-02T15:25:25.234Z,101922.88
2022-11-02T15:27:56.505Z,101925.31
2022-11-02T15:30:28.369Z,101928.81
2022-11-02T15:33:22.237Z,101924.00
2022-11-02T15:35:53.081Z,101923.44
2022-11-02T15:38:32.592Z,101914.03
2022-11-02T15:41:28.326Z,101923.75
2022-11-02T15:44:18.128Z,101923.94
2022-11-02T15:47:04.177Z,101916.44
2022-11-02T15:50:00.932Z,101914.72
2022-11-02T15:53:01.644Z,101902.94
2022-11-02T15:55:53.809Z,101912.63
2022-11-02T15:58:52.691Z,101905.13
2022-11-02T16:01:27.448Z,101907.19
2022-11-02T16:04:03.003Z,101903.84
2022-11-02T16:06:36.767Z,101904.34
2022-11-02T16:09:23.086Z,101898.44
2022-11-02T16:12:07.503Z,101883.69
2022-11-02T16:14:33.897Z,101889.09
2022-11-02T16:17:00.378Z,101881.91
2022-11-02T16:19:26.779Z,101891.50
2022-11-02T16:21:55.996Z,101891.59
2022-11-02T16:24:24.989Z,101887.09
2022-11-02T16:26:51.526Z,101887.94
2022-11-02T16:29:32.229Z,101883.44
2022-11-02T16:31:58.861Z,101880.03
2022-11-02T16:34:31.829Z,101872.13
2022-11-02T16:37:04.727Z,101872.94
2022-11-02T16:39:37.481Z,101868.78
2022-11-02T16:42:15.871Z,101869.19
2022-11-02T16:44:43.100Z,101870.78
2022-11-02T16:47:09.609Z,101879.63
2022-11-02T16:49:57.553Z,101876.63
2022-11-02T16:52:35.759Z,101871.69
2022-11-02T16:55:03.618Z,101878.19
2022-11-02T16:57:34.200Z,101882.09
2022-11-02T17:00:07.980Z,101883.59
2022-11-02T17:02:38.224Z,101872.94
2022-11-02T17:05:07.297Z,101870.69
2022-11-02T17:07:39.082Z,101871.09
2022-11-02T17:10:07.278Z,101867.69
2022-11-02T17:12:36.980Z,101869.59
2022-11-02T17:15:19.474Z,101872.69
2022-11-02T17:17:46.557Z,101865.53
2022-11-02T17:20:15.848Z,101871.69
2022-11-02T17:22:56.822Z,101867.09
2022-11-02T17:25:31.934Z,101870.22
2022-11-02T17:28:02.651Z,101864.97
2022-11-02T17:30:35.352Z,101868.03
2022-11-02T17:33:24.879Z,101869.28
2022-11-02T17:35:54.424Z,101865.88
2022-11-02T17:38:26.141Z,101863.28
2022-11-02T17:40:53.757Z,101861.38
2022-11-02T17:43:21.750Z,101863.69
2022-11-02T17:45:56.242Z,101864.09
2022-11-02T17:48:24.347Z,101855.44
2022-11-02T17:50:54.729Z,101852.44
2022-11-02T17:53:22.492Z,101855.84
2022-11-02T17:55:49.013Z,101847.09
2022-11-02T17:58:16.750Z,101849.03
2022-11-02T18:00:43.343Z,101847.94
2022-11-02T18:03:19.273Z,101841.09
2022-11-02T18:05:50.006Z,101841.84
2022-11-02T18:08:18.984Z,101833.88
2022-11-02T18:10:47.491Z,101838.44
2022-11-02T18:13:16.480Z,101831.19
2022-11-02T18:15:43.317Z,101833.78
2022-11-02T18:18:10.410Z,101833.44
2022-11-02T18:20:41.510Z,101831.94
2022-11-02T18:23:14.413Z,101820.47
2022-11-02T18:25:42.110Z,101817.72
2022-11-02T18:28:08.821Z,101816.56
2022-11-02T18:30:35.356Z,101813.16
2022-11-02T18:33:02.723Z,101813.91
2022-11-02T18:35:29.520Z,101809.31
2022-11-02T18:37:55.934Z,101816.56
2022-11-02T18:40:22.372Z,101808.97
2022-11-02T18:42:48.837Z,101807.06
2022-11-02T18:45:15.935Z,101799.50
2022-11-02T18:47:42.608Z,101796.41
2022-11-02T18:50:11.903Z,101790.66
2022-11-02T18:52:39.093Z,101786.91
2022-11-02T18:55:06.102Z,101783.09
2022-11-02T18:57:33.015Z,101773.59
2022-11-02T19:00:02.213Z,101767.94
2022-11-02T19:02:29.113Z,101766.78
2022-11-02T19:04:55.718Z,101757.28
2022-11-02T19:07:40.726Z,101756.53
2022-11-02T19:10:07.737Z,101747.44
2022-11-02T19:12:34.448Z,101737.22
2022-11-02T19:15:01.985Z,101736.13
2022-11-02T19:17:28.398Z,101723.13
2022-11-02T19:19:54.929Z,101720.47
2022-11-02T19:22:23.792Z,101707.56
2022-11-02T19:24:50.962Z,101711.00
2022-11-02T19:27:22.100Z,101716.66
2022-11-02T19:29:48.582Z,101721.22
2022-11-02T19:32:15.414Z,101710.25
2022-11-02T19:34:42.930Z,101709.16
2022-11-02T19:37:09.678Z,101698.50
2022-11-02T19:39:36.302Z,101703.41
2022-11-02T19:42:03.484Z,101699.66
2022-11-02T19:44:30.603Z,101698.16
2022-11-02T19:46:57.010Z,101690.94
2022-11-02T19:49:23.493Z,101688.25
2022-11-02T19:51:49.908Z,101680.28
2022-11-02T19:54:16.330Z,101685.59
2022-11-02T19:56:42.927Z,101683.34
2022-11-02T19:59:09.482Z,101681.44
2022-11-02T20:01:38.202Z,101680.34
2022-11-02T20:04:05.326Z,101685.34
2022-11-02T20:06:34.587Z,101680.47
2022-11-02T20:09:04.159Z,101677.47
2022-11-02T20:11:31.102Z,101668.75
2022-11-02T20:14:02.236Z,101662.25
2022-11-02T20:16:29.057Z,101667.56
2022-11-02T20:18:56.189Z,101652.75
2022-11-02T20:21:32.367Z,101653.91
2022-11-02T20:24:02.379Z,101652.44
2022-11-02T20:26:31.407Z,101657.41
2022-11-02T20:28:59.688Z,101657.84
2022-11-02T20:31:29.446Z,101663.91
2022-11-02T20:33:56.016Z,101655.59
2022-11-02T20:36:22.468Z,101658.66
2022-11-02T20:38:51.923Z,101649.94
2022-11-02T20:41:20.317Z,101644.59
2022-11-02T20:43:51.363Z,101653.00
2022-11-02T20:46:41.416Z,101653.44
2022-11-02T20:49:20.520Z,101645.09
2022-11-02T20:51:48.320Z,101640.94
2022-11-02T20:54:14.830Z,101648.94
2022-11-02T20:56:41.298Z,101638.69
2022-11-02T20:59:07.742Z,101638.38
2022-11-02T21:01:34.974Z,101636.13
2022-11-02T21:04:01.797Z,101632.28
2022-11-02T21:06:28.243Z,101628.88
2022-11-02T21:08:54.646Z,101628.78
2022-11-02T21:11:39.692Z,101626.13
2022-11-02T21:14:06.102Z,101626.56
2022-11-02T21:16:33.619Z,101628.03
2022-11-02T21:19:00.109Z,101625.38
2022-11-02T21:21:26.589Z,101623.13
2022-11-02T21:23:53.145Z,101620.13
2022-11-02T21:26:19.619Z,101611.81
2022-11-02T21:28:46.288Z,101623.97
2022-11-02T21:31:16.434Z,101626.63
2022-11-02T21:33:43.973Z,101625.88
2022-11-02T21:36:10.588Z,101616.72
2022-11-02T21:38:38.244Z,101619.41
2022-11-02T21:41:07.158Z,101613.31
2022-11-02T21:43:36.414Z,101606.09
2022-11-02T21:46:03.942Z,101606.50
2022-11-02T21:48:33.186Z,101603.84
2022-11-02T21:51:03.822Z,101589.34
2022-11-02T21:53:34.915Z,101586.28
2022-11-02T21:56:07.802Z,101589.59
2022-11-02T21:58:34.978Z,101580.13
2022-11-02T22:01:24.286Z,101587.28
2022-11-02T22:03:51.769Z,101582.38
2022-11-02T22:06:21.075Z,101574.78
2022-11-02T22:08:48.475Z,101576.72
2022-11-02T22:11:24.511Z,101580.88
2022-11-02T22:13:52.541Z,101574.47
2022-11-02T22:16:24.500Z,101572.88
2022-11-02T22:18:53.103Z,101564.47
2022-11-02T22:21:20.134Z,101563.72
2022-11-02T22:23:48.209Z,101563.72
2022-11-02T22:26:17.625Z,101551.59
2022-11-02T22:28:45.283Z,101538.28
2022-11-02T22:31:23.945Z,101540.50
2022-11-02T22:33:53.480Z,101546.25
2022-11-02T22:36:22.498Z,101532.94
2022-11-02T22:38:53.398Z,101539.00
2022-11-02T22:41:30.221Z,101525.28
2022-11-02T22:43:59.975Z,101520.72
2022-11-02T22:46:27.578Z,101515.38
2022-11-02T22:48:56.164Z,101503.56
2022-11-02T22:51:25.238Z,101500.56
2022-11-02T22:53:52.300Z,101501.75
2022-11-02T22:56:21.110Z,101491.09
2022-11-02T22:58:48.431Z,101494.91
2022-11-02T23:01:18.899Z,101486.59
2022-11-02T23:03:45.837Z,101480.22
2022-11-02T23:06:13.294Z,101480.63
2022-11-02T23:08:42.684Z,101475.31
2022-11-02T23:11:23.383Z,101476.47
2022-11-02T23:13:56.827Z,101481.47
2022-11-02T23:16:26.405Z,101478.91
2022-11-02T23:19:13.062Z,101474.00
2022-11-02T23:21:42.596Z,101472.91
2022-11-02T23:24:27.963Z,101476.75
2022-11-02T23:26:54.855Z,101466.09
2022-11-02T23:30:00.303Z,101467.59
2022-11-02T23:32:26.758Z,101459.59
2022-11-02T23:35:12.990Z,101462.69
2022-11-02T23:37:39.514Z,101456.31
2022-11-02T23:40:06.711Z,101455.16
2022-11-02T23:42:33.782Z,101453.66
2022-11-02T23:45:00.296Z,101457.06
2022-11-02T23:47:49.327Z,101454.06
2022-11-02T23:50:36.613Z,101452.47
2022-11-02T23:53:22.083Z,101452.47
2022-11-02T23:56:07.564Z,101452.16
2022-11-02T23:58:34.023Z,101463.97
